createdAt,value
2019-02-24T00:00:01.491Z,34.80
2019-02-24T00:02:52.368Z,34.97
2019-02-24T00:05:35.826Z,35.49
2019-02-24T00:08:26.719Z,34.58
2019-02-24T00:11:10.571Z,34.10
2019-02-24T00:14:01.497Z,34.12
2019-02-24T00:16:45.401Z,33.94
2019-02-24T00:19:36.311Z,34.42
2019-02-24T00:22:19.636Z,34.00
2019-02-24T00:25:10.559Z,34.14
2019-02-24T00:27:54.114Z,34.66
2019-02-24T00:30:45.059Z,34.95
2019-02-24T00:33:28.218Z,35.83
2019-02-24T00:36:19.187Z,36.71
2019-02-24T00:39:02.338Z,36.34
2019-02-24T00:41:53.305Z,36.04
2019-02-24T00:44:36.558Z,36.06
2019-02-24T00:47:27.494Z,36.19
2019-02-24T00:50:11.395Z,34.41
2019-02-24T00:52:54.688Z,32.42
2019-02-24T00:55:47.235Z,32.95
2019-02-24T00:58:30.765Z,31.89
2019-02-24T01:01:21.673Z,31.64
2019-02-24T01:04:05.614Z,31.27
2019-02-24T01:06:56.548Z,31.89
2019-02-24T01:09:59.123Z,31.57
2019-02-24T01:12:50.055Z,31.15
2019-02-24T01:15:33.569Z,31.09
2019-02-24T01:18:24.469Z,30.56
2019-02-24T01:21:07.722Z,30.38
2019-02-24T01:23:58.704Z,30.17
2019-02-24T01:26:42.046Z,30.35
2019-02-24T01:29:32.996Z,30.12
2019-02-24T01:32:16.806Z,30.46
2019-02-24T01:35:08.442Z,30.35
2019-02-24T01:37:52.075Z,30.32
2019-02-24T01:40:43.008Z,30.38
2019-02-24T01:43:26.881Z,29.78
2019-02-24T01:46:17.827Z,29.63
2019-02-24T01:49:01.033Z,29.52
2019-02-24T01:51:44.777Z,29.65
2019-02-24T01:54:35.739Z,29.77
2019-02-24T01:57:19.128Z,30.57
2019-02-24T02:03:33.474Z,30.51
2019-02-24T02:06:17.067Z,30.40
2019-02-24T02:09:08.010Z,31.67
2019-02-24T02:11:51.578Z,31.82
2019-02-24T02:14:42.519Z,31.67
2019-02-24T02:17:26.073Z,31.59
2019-02-24T02:20:16.987Z,31.25
2019-02-24T02:23:00.931Z,31.93
2019-02-24T02:25:51.883Z,32.83
2019-02-24T02:28:44.141Z,33.32
2019-02-24T02:31:46.946Z,33.17
2019-02-24T02:34:38.020Z,34.81
2019-02-24T02:37:22.099Z,35.87
2019-02-24T02:40:13.036Z,38.74
2019-02-24T02:42:56.506Z,36.44
2019-02-24T02:45:47.452Z,36.05
2019-02-24T02:48:31.364Z,36.23
2019-02-24T02:51:22.321Z,36.58
2019-02-24T02:54:05.505Z,37.83
2019-02-24T02:56:56.464Z,38.34
2019-02-24T02:59:59.279Z,38.21
2019-02-24T03:02:50.201Z,40.37
2019-02-24T03:05:34.039Z,41.44
2019-02-24T03:08:43.913Z,43.38
2019-02-24T03:11:27.271Z,42.26
2019-02-24T03:14:18.200Z,44.29
2019-02-24T03:17:01.641Z,45.21
2019-02-24T03:19:52.566Z,44.22
2019-02-24T03:22:36.452Z,43.45
2019-02-24T03:25:28.340Z,42.69
2019-02-24T03:28:31.229Z,43.35
2019-02-24T03:31:22.293Z,44.98
2019-02-24T03:34:06.236Z,46.98
2019-02-24T03:36:57.160Z,48.67
2019-02-24T03:39:40.421Z,49.93
2019-02-24T03:42:31.317Z,49.71
2019-02-24T03:45:14.581Z,50.10
2019-02-24T03:48:05.504Z,51.13
2019-02-24T03:50:49.291Z,48.14
2019-02-24T03:53:33.330Z,46.86
2019-02-24T03:56:24.293Z,42.02
2019-02-24T03:59:15.123Z,42.32
2019-02-24T04:02:00.529Z,44.09
2019-02-24T04:04:44.055Z,47.06
2019-02-24T04:07:34.967Z,44.78
2019-02-24T04:10:18.742Z,46.75
2019-02-24T04:13:09.633Z,46.51
2019-02-24T04:15:53.217Z,46.41
2019-02-24T04:18:44.135Z,46.87
2019-02-24T04:21:27.563Z,49.37
2019-02-24T04:24:18.491Z,50.47
2019-02-24T04:27:02.370Z,51.26
2019-02-24T04:30:12.351Z,51.17
2019-02-24T04:32:56.232Z,50.56
2019-02-24T04:35:47.184Z,49.61
2019-02-24T04:38:31.044Z,50.80
2019-02-24T04:41:22.005Z,50.31
2019-02-24T04:44:05.115Z,48.85
2019-02-24T04:46:56.050Z,48.26
2019-02-24T04:49:39.484Z,48.82
2019-02-24T04:52:30.419Z,50.56
2019-02-24T04:55:14.056Z,51.03
2019-02-24T04:58:04.968Z,51.06
2019-02-24T05:00:48.114Z,50.63
2019-02-24T05:03:39.059Z,51.39
2019-02-24T05:06:22.661Z,45.80
2019-02-24T05:09:13.556Z,49.10
2019-02-24T05:11:57.485Z,49.79
2019-02-24T05:14:48.384Z,48.99
2019-02-24T05:17:32.213Z,47.36
2019-02-24T05:23:50.314Z,49.19
2019-02-24T05:26:41.209Z,49.59
2019-02-24T05:29:32.144Z,50.65
2019-02-24T05:32:15.941Z,51.75
2019-02-24T05:35:06.888Z,53.06
2019-02-24T05:37:50.415Z,52.91
2019-02-24T05:40:41.359Z,52.64
2019-02-24T05:43:44.601Z,52.96
2019-02-24T05:46:35.557Z,53.74
2019-02-24T05:49:26.497Z,52.68
2019-02-24T05:52:09.661Z,53.76
2019-02-24T05:55:00.749Z,53.03
2019-02-24T05:57:44.694Z,53.01
2019-02-24T06:00:35.627Z,44.48
2019-02-24T06:03:26.612Z,42.91
2019-02-24T06:06:10.472Z,43.80
2019-02-24T06:09:01.430Z,44.87
2019-02-24T06:11:45.597Z,49.20
2019-02-24T06:14:36.506Z,48.93
2019-02-24T06:17:19.636Z,48.80
2019-02-24T06:20:10.577Z,47.83
2019-02-24T06:22:54.540Z,51.35
2019-02-24T06:25:45.488Z,49.54
2019-02-24T06:28:28.901Z,45.97
2019-02-24T06:31:19.818Z,46.00
2019-02-24T06:34:03.707Z,44.97
2019-02-24T06:36:54.654Z,45.03
2019-02-24T06:39:38.096Z,47.52
2019-02-24T06:42:29.052Z,43.11
2019-02-24T06:45:12.409Z,45.87
2019-02-24T06:48:03.391Z,47.55
2019-02-24T06:51:05.667Z,44.95
2019-02-24T06:53:56.597Z,46.31
2019-02-24T06:56:39.969Z,48.49
2019-02-24T06:59:30.963Z,49.81
2019-02-24T07:02:21.907Z,50.20
2019-02-24T07:05:06.054Z,50.99
2019-02-24T07:07:56.977Z,52.46
2019-02-24T07:10:41.162Z,52.43
2019-02-24T07:13:32.078Z,52.16
2019-02-24T07:16:16.108Z,49.46
2019-02-24T07:19:07.028Z,46.76
2019-02-24T07:21:50.478Z,46.70
2019-02-24T07:24:41.459Z,41.10
2019-02-24T07:27:24.817Z,36.94
2019-02-24T07:30:23.099Z,35.22
2019-02-24T07:33:20.285Z,29.60
2019-02-24T07:36:11.204Z,29.14
2019-02-24T07:38:55.300Z,26.94
2019-02-24T07:41:46.226Z,24.82
2019-02-24T07:44:49.025Z,24.34
2019-02-24T07:47:39.930Z,21.83
2019-02-24T07:50:24.052Z,21.52
2019-02-24T07:53:15.010Z,19.74
2019-02-24T07:55:58.498Z,19.60
2019-02-24T07:58:42.356Z,18.84
2019-02-24T08:01:33.281Z,18.16
2019-02-24T08:04:17.350Z,17.32
2019-02-24T08:10:17.529Z,16.21
2019-02-24T08:13:08.480Z,16.67
2019-02-24T08:15:52.018Z,16.81
2019-02-24T08:18:49.214Z,16.81
2019-02-24T08:21:47.186Z,15.57
2019-02-24T08:24:38.128Z,15.92
2019-02-24T08:27:21.410Z,15.30
2019-02-24T08:30:12.490Z,15.94
2019-02-24T08:32:56.287Z,15.84
2019-02-24T08:35:47.174Z,16.40
2019-02-24T08:38:30.254Z,16.19
2019-02-24T08:41:21.170Z,16.13
2019-02-24T08:44:04.498Z,15.26
2019-02-24T08:46:55.440Z,15.33
2019-02-24T08:49:38.758Z,14.52
2019-02-24T08:52:29.718Z,14.77
2019-02-24T08:55:13.694Z,16.35
2019-02-24T08:58:04.658Z,16.82
2019-02-24T09:00:50.931Z,16.69
2019-02-24T09:03:41.049Z,15.16
2019-02-24T09:06:26.683Z,15.02
2019-02-24T09:09:17.632Z,14.99
2019-02-24T09:12:01.519Z,15.20
2019-02-24T09:14:52.448Z,13.35
2019-02-24T09:17:36.163Z,13.48
2019-02-24T09:20:27.121Z,13.09
2019-02-24T09:23:10.970Z,14.29
2019-02-24T09:26:01.911Z,13.32
2019-02-24T09:28:47.204Z,13.77
2019-02-24T09:31:38.164Z,15.03
2019-02-24T09:34:21.784Z,14.76
2019-02-24T09:37:12.729Z,15.86
2019-02-24T09:39:56.721Z,15.72
2019-02-24T09:42:47.661Z,17.13
2019-02-24T09:45:30.858Z,16.51
2019-02-24T09:48:21.875Z,15.07
2019-02-24T09:51:05.196Z,14.64
2019-02-24T09:53:56.155Z,14.84
2019-02-24T09:56:40.011Z,14.82
2019-02-24T09:59:30.940Z,13.17
2019-02-24T10:02:14.966Z,14.54
2019-02-24T10:05:06.015Z,14.63
2019-02-24T10:08:10.076Z,13.43
2019-02-24T10:11:01.049Z,13.51
2019-02-24T10:13:44.305Z,15.60
2019-02-24T10:19:37.705Z,15.40
2019-02-24T10:22:28.614Z,11.40
2019-02-24T10:25:12.278Z,11.67
2019-02-24T10:28:03.210Z,12.70
2019-02-24T10:30:46.670Z,12.66
2019-02-24T10:33:37.559Z,12.73
2019-02-24T10:36:21.378Z,12.85
2019-02-24T10:39:13.929Z,12.66
2019-02-24T10:41:57.572Z,12.76
2019-02-24T10:44:48.483Z,13.03
2019-02-24T10:47:32.005Z,12.41
2019-02-24T10:50:22.925Z,12.89
2019-02-24T10:53:06.859Z,12.51
2019-02-24T10:55:57.794Z,11.81
2019-02-24T10:58:41.727Z,11.72
2019-02-24T11:01:32.642Z,12.43
2019-02-24T11:04:16.488Z,12.84
2019-02-24T11:07:07.455Z,11.40
2019-02-24T11:09:51.091Z,11.63
2019-02-24T11:12:41.993Z,11.66
2019-02-24T11:15:32.957Z,11.83
2019-02-24T11:18:16.745Z,10.53
2019-02-24T11:21:07.665Z,11.35
2019-02-24T11:23:51.629Z,12.01
2019-02-24T11:26:35.574Z,12.82
2019-02-24T11:29:26.490Z,11.59
2019-02-24T11:32:09.630Z,12.29
2019-02-24T11:35:00.548Z,11.72
2019-02-24T11:37:44.578Z,11.70
2019-02-24T11:40:27.695Z,12.11
2019-02-24T11:43:18.609Z,11.11
2019-02-24T11:46:02.680Z,11.51
2019-02-24T11:48:54.168Z,11.52
2019-02-24T11:51:37.266Z,10.05
2019-02-24T11:54:28.171Z,11.13
2019-02-24T11:57:12.163Z,10.61
2019-02-24T12:03:26.732Z,10.21
2019-02-24T12:06:17.679Z,11.30
2019-02-24T12:09:05.259Z,10.81
2019-02-24T12:11:53.526Z,10.56
2019-02-24T12:14:37.442Z,10.19
2019-02-24T12:17:28.404Z,9.27
2019-02-24T12:20:11.939Z,9.80
2019-02-24T12:23:02.885Z,10.56
2019-02-24T12:25:46.708Z,10.11
2019-02-24T12:28:37.651Z,9.54
2019-02-24T12:31:21.507Z,9.70
2019-02-24T12:34:12.428Z,9.77
2019-02-24T12:36:56.470Z,10.25
2019-02-24T12:39:47.392Z,10.52
2019-02-24T12:42:31.282Z,9.95
2019-02-24T12:48:30.506Z,10.43
2019-02-24T12:51:21.469Z,9.36
2019-02-24T12:54:05.320Z,9.57
2019-02-24T12:56:56.272Z,9.70
2019-02-24T12:59:40.181Z,9.82
2019-02-24T13:02:49.972Z,9.19
2019-02-24T13:05:33.227Z,9.47
2019-02-24T13:08:24.176Z,9.41
2019-02-24T13:11:08.326Z,9.33
2019-02-24T13:13:59.267Z,8.48
2019-02-24T13:16:42.876Z,8.29
2019-02-24T13:19:33.808Z,8.71
2019-02-24T13:22:17.228Z,9.04
2019-02-24T13:25:09.820Z,8.86
2019-02-24T13:28:12.722Z,9.08
2019-02-24T13:31:03.669Z,8.42
2019-02-24T13:33:54.612Z,8.32
2019-02-24T13:36:45.557Z,7.54
2019-02-24T13:39:28.848Z,7.78
2019-02-24T13:45:28.206Z,8.93
2019-02-24T13:48:19.160Z,8.03
2019-02-24T13:51:02.591Z,8.40
2019-02-24T13:53:53.555Z,8.77
2019-02-24T13:56:56.142Z,7.67
2019-02-24T13:59:47.067Z,7.51
2019-02-24T14:02:30.199Z,8.08
2019-02-24T14:05:21.119Z,8.79
2019-02-24T14:08:04.858Z,8.06
2019-02-24T14:10:48.254Z,8.19
2019-02-24T14:13:39.170Z,8.76
2019-02-24T14:16:23.227Z,7.18
2019-02-24T14:19:14.160Z,9.13
2019-02-24T14:21:58.041Z,8.48
2019-02-24T14:24:48.976Z,7.63
2019-02-24T14:27:32.743Z,8.08
2019-02-24T14:30:23.690Z,8.40
2019-02-24T14:33:07.643Z,8.46
2019-02-24T14:35:58.615Z,8.50
2019-02-24T14:38:41.950Z,8.34
2019-02-24T14:41:32.918Z,8.23
2019-02-24T14:44:16.274Z,8.05
2019-02-24T14:47:00.106Z,8.68
2019-02-24T14:49:51.048Z,9.19
2019-02-24T14:52:35.031Z,9.09
2019-02-24T14:55:25.998Z,9.32
2019-02-24T14:58:09.257Z,9.31
2019-02-24T15:01:00.835Z,9.41
2019-02-24T15:04:05.047Z,9.11
2019-02-24T15:06:55.954Z,9.25
2019-02-24T15:09:39.787Z,8.76
2019-02-24T15:12:30.705Z,9.06
2019-02-24T15:15:15.453Z,9.40
2019-02-24T15:18:06.313Z,9.65
2019-02-24T15:20:50.118Z,9.89
2019-02-24T15:23:22.714Z,9.50
2019-02-24T15:26:07.016Z,9.18
2019-02-24T15:28:57.864Z,9.45
2019-02-24T15:31:41.659Z,8.89
2019-02-24T15:34:32.562Z,9.43
2019-02-24T15:37:16.352Z,9.85
2019-02-24T15:40:07.816Z,9.78
2019-02-24T15:43:11.152Z,10.42
2019-02-24T15:46:02.087Z,10.36
2019-02-24T15:48:45.966Z,10.37
2019-02-24T15:51:36.915Z,10.57
2019-02-24T15:54:20.680Z,10.86
2019-02-24T15:57:11.631Z,10.71
2019-02-24T16:00:15.716Z,11.02
2019-02-24T16:03:06.665Z,11.08
2019-02-24T16:05:50.693Z,11.46
2019-02-24T16:08:41.621Z,11.82
2019-02-24T16:11:25.463Z,12.79
2019-02-24T16:14:16.443Z,12.80
2019-02-24T16:16:59.613Z,13.14
2019-02-24T16:19:50.573Z,12.95
2019-02-24T16:22:34.100Z,13.50
2019-02-24T16:25:25.113Z,13.22
2019-02-24T16:28:16.032Z,13.54
2019-02-24T16:30:59.528Z,13.75
2019-02-24T16:33:50.500Z,13.75
2019-02-24T16:36:34.247Z,13.91
2019-02-24T16:39:25.206Z,14.02
2019-02-24T16:42:08.451Z,14.34
2019-02-24T16:44:59.376Z,14.41
2019-02-24T16:47:43.220Z,14.82
2019-02-24T16:50:34.105Z,15.32
2019-02-24T16:53:18.035Z,15.80
2019-02-24T16:56:08.977Z,15.87
2019-02-24T16:58:52.913Z,15.83
2019-02-24T17:01:43.830Z,16.09
2019-02-24T17:04:27.525Z,16.36
2019-02-24T17:07:18.437Z,16.73
2019-02-24T17:10:01.975Z,17.49
2019-02-24T17:12:52.938Z,18.28
2019-02-24T17:15:36.384Z,18.40
2019-02-24T17:18:27.349Z,18.73
2019-02-24T17:21:11.210Z,18.74
2019-02-24T17:24:02.231Z,19.38
2019-02-24T17:26:45.491Z,19.81
2019-02-24T17:29:36.450Z,19.29
2019-02-24T17:32:20.326Z,19.32
2019-02-24T17:35:11.375Z,19.58
2019-02-24T17:37:55.384Z,19.75
2019-02-24T17:40:46.340Z,20.20
2019-02-24T17:43:29.699Z,20.50
2019-02-24T17:46:20.632Z,21.07
2019-02-24T17:49:04.183Z,21.35
2019-02-24T17:51:55.112Z,21.51
2019-02-24T17:54:38.298Z,21.51
2019-02-24T17:57:29.235Z,22.01
2019-02-24T18:00:14.723Z,21.77
2019-02-24T18:03:06.501Z,20.91
2019-02-24T18:05:50.243Z,20.90
2019-02-24T18:08:41.192Z,20.46
2019-02-24T18:11:24.438Z,20.67
2019-02-24T18:14:15.399Z,20.77
2019-02-24T18:16:59.158Z,20.83
2019-02-24T18:19:50.103Z,20.88
2019-02-24T18:22:33.807Z,21.07
2019-02-24T18:25:24.771Z,21.47
2019-02-24T18:28:08.438Z,21.37
2019-02-24T18:30:59.366Z,21.84
2019-02-24T18:33:50.350Z,22.34
2019-02-24T18:36:33.750Z,22.69
2019-02-24T18:39:24.822Z,23.07
2019-02-24T18:42:08.527Z,23.25
2019-02-24T18:44:59.521Z,23.11
2019-02-24T18:48:02.261Z,23.17
2019-02-24T18:50:53.206Z,23.41
2019-02-24T18:53:36.873Z,23.51
2019-02-24T18:56:27.803Z,23.79
2019-02-24T18:59:11.734Z,24.41
2019-02-24T19:02:02.672Z,24.72
2019-02-24T19:04:46.406Z,24.48
2019-02-24T19:07:37.410Z,25.22
2019-02-24T19:10:21.471Z,25.09
2019-02-24T19:16:21.382Z,26.41
2019-02-24T19:19:12.399Z,25.74
2019-02-24T19:21:56.082Z,25.92
2019-02-24T19:24:41.794Z,26.04
2019-02-24T19:27:32.883Z,25.96
2019-02-24T19:30:16.252Z,26.31
2019-02-24T19:33:07.238Z,26.31
2019-02-24T19:35:50.795Z,26.56
2019-02-24T19:38:41.745Z,26.80
2019-02-24T19:41:25.612Z,27.56
2019-02-24T19:44:16.694Z,28.32
2019-02-24T19:47:00.140Z,28.19
2019-02-24T19:49:51.119Z,27.48
2019-02-24T19:52:53.969Z,27.83
2019-02-24T19:55:44.905Z,29.56
2019-02-24T19:58:28.757Z,30.79
2019-02-24T20:01:19.777Z,34.13
2019-02-24T20:04:03.304Z,34.95
2019-02-24T20:06:54.301Z,31.76
2019-02-24T20:09:41.685Z,32.34
2019-02-24T20:12:35.935Z,31.32
2019-02-24T20:15:19.730Z,32.64
2019-02-24T20:18:10.768Z,31.84
2019-02-24T20:20:54.191Z,31.30
2019-02-24T20:23:45.800Z,31.21
2019-02-24T20:26:36.767Z,32.43
2019-02-24T20:29:27.744Z,34.90
2019-02-24T20:32:11.819Z,33.32
2019-02-24T20:35:02.795Z,31.53
2019-02-24T20:37:46.721Z,30.53
2019-02-24T20:40:30.595Z,30.40
2019-02-24T20:43:21.590Z,29.59
2019-02-24T20:46:05.585Z,29.07
2019-02-24T20:48:56.555Z,28.33
2019-02-24T20:51:40.337Z,28.33
2019-02-24T20:54:31.277Z,28.06
2019-02-24T20:57:14.489Z,28.67
2019-02-24T21:00:11.899Z,29.82
2019-02-24T21:03:02.937Z,28.66
2019-02-24T21:05:47.129Z,28.37
2019-02-24T21:08:38.116Z,28.61
2019-02-24T21:11:40.704Z,28.43
2019-02-24T21:14:31.629Z,27.89
2019-02-24T21:17:15.345Z,27.52
2019-02-24T21:20:09.112Z,27.93
2019-02-24T21:23:00.013Z,28.43
2019-02-24T21:25:44.088Z,28.81
2019-02-24T21:28:35.017Z,29.07
2019-02-24T21:31:18.463Z,29.04
2019-02-24T21:34:09.438Z,29.68
2019-02-24T21:36:52.620Z,30.80
2019-02-24T21:39:43.541Z,31.61
2019-02-24T21:42:27.514Z,33.66
2019-02-24T21:45:19.344Z,31.01
2019-02-24T21:48:03.426Z,30.87
2019-02-24T21:50:54.335Z,32.52
2019-02-24T21:53:38.167Z,34.14
2019-02-24T21:56:29.117Z,35.99
2019-02-24T21:59:12.576Z,35.80
2019-02-24T22:02:03.491Z,38.19
2019-02-24T22:04:47.548Z,38.25
2019-02-24T22:07:38.469Z,36.88
2019-02-24T22:10:21.946Z,37.29
2019-02-24T22:13:12.841Z,38.45
2019-02-24T22:15:55.917Z,39.43
2019-02-24T22:18:46.854Z,40.23
2019-02-24T22:21:30.692Z,41.40
2019-02-24T22:24:21.647Z,39.44
2019-02-24T22:27:05.668Z,39.48
2019-02-24T22:30:16.823Z,41.33
2019-02-24T22:33:00.314Z,42.37
2019-02-24T22:35:51.280Z,42.52
2019-02-24T22:38:34.407Z,43.29
2019-02-24T22:41:25.360Z,43.91
2019-02-24T22:44:08.543Z,43.46
2019-02-24T22:46:59.506Z,42.58
2019-02-24T22:49:42.960Z,42.42
2019-02-24T22:52:34.225Z,42.13
2019-02-24T22:55:17.752Z,42.03
2019-02-24T22:58:08.670Z,43.45
2019-02-24T23:04:19.168Z,44.33
2019-02-24T23:07:02.970Z,42.97
2019-02-24T23:09:53.911Z,43.39
2019-02-24T23:12:37.970Z,44.86
2019-02-24T23:15:28.885Z,45.81
2019-02-24T23:18:12.453Z,45.06
2019-02-24T23:21:03.324Z,44.27
2019-02-24T23:23:46.886Z,44.62
2019-02-24T23:26:37.764Z,45.63
2019-02-24T23:29:28.627Z,42.54
2019-02-24T23:32:12.601Z,42.72
2019-02-24T23:38:30.567Z,42.75
2019-02-24T23:41:21.474Z,42.57
2019-02-24T23:44:12.450Z,38.93
2019-02-24T23:46:56.462Z,42.68
2019-02-24T23:49:47.413Z,41.48
2019-02-24T23:52:31.126Z,39.50
2019-02-24T23:55:22.077Z,41.38
2019-02-24T23:58:05.431Z,42.97
